createdAt,value
2019-01-23T00:01:41.342Z,100015.94
2019-01-23T00:04:07.341Z,100015.00
2019-01-23T00:06:33.385Z,100013.52
2019-01-23T00:08:59.259Z,100009.27
2019-01-23T00:11:25.092Z,100001.36
2019-01-23T00:13:52.142Z,100004.13
2019-01-23T00:16:17.969Z,99992.92
2019-01-23T00:18:43.820Z,99991.03
2019-01-23T00:21:09.945Z,99984.39
2019-01-23T00:23:35.798Z,99978.03
2019-01-23T00:26:03.526Z,99970.13
2019-01-23T00:28:29.388Z,99968.91
2019-01-23T00:30:55.215Z,99963.45
2019-01-23T00:33:23.074Z,99961.68
2019-01-23T00:35:49.032Z,99959.02
2019-01-23T00:38:14.868Z,99953.31
2019-01-23T00:40:41.009Z,99953.14
2019-01-23T00:43:08.086Z,99953.23
2019-01-23T00:45:33.920Z,99951.50
2019-01-23T00:47:59.809Z,99947.73
2019-01-23T00:50:25.667Z,99949.84
2019-01-23T00:52:51.498Z,99944.83
2019-01-23T00:55:17.632Z,99942.50
2019-01-23T00:57:43.493Z,99938.05
2019-01-23T01:00:13.121Z,99948.53
2019-01-23T01:02:38.974Z,99943.84
2019-01-23T01:05:04.831Z,99939.20
2019-01-23T01:07:30.661Z,99932.69
2019-01-23T01:09:56.501Z,99936.70
2019-01-23T01:12:24.632Z,99937.94
2019-01-23T01:14:50.495Z,99941.89
2019-01-23T01:17:16.429Z,99941.09
2019-01-23T01:19:42.286Z,99939.07
2019-01-23T01:22:08.115Z,99949.38
2019-01-23T01:24:33.946Z,99942.28
2019-01-23T01:27:01.406Z,99949.79
2019-01-23T01:29:27.249Z,99950.69
2019-01-23T01:31:53.102Z,99937.68
2019-01-23T01:34:19.039Z,99941.89
2019-01-23T01:36:44.893Z,99950.83
2019-01-23T01:39:10.730Z,99951.53
2019-01-23T01:41:36.570Z,99949.05
2019-01-23T01:44:04.318Z,99945.27
2019-01-23T01:46:30.142Z,99943.63
2019-01-23T01:48:56.031Z,99950.42
2019-01-23T01:51:21.873Z,99950.42
2019-01-23T01:53:47.714Z,99945.08
2019-01-23T01:56:13.574Z,99946.59
2019-01-23T01:58:39.445Z,99941.23
2019-01-23T02:01:05.245Z,99947.02
2019-01-23T02:03:31.350Z,99945.38
2019-01-23T02:05:59.804Z,99946.80
2019-01-23T02:08:25.640Z,99935.82
2019-01-23T02:10:51.536Z,99936.91
2019-01-23T02:13:17.376Z,99931.72
2019-01-23T02:15:43.208Z,99921.19
2019-01-23T02:18:09.068Z,99920.60
2019-01-23T02:20:39.745Z,99922.88
2019-01-23T02:23:05.799Z,99918.95
2019-01-23T02:25:31.639Z,99922.50
2019-01-23T02:28:00.396Z,99915.23
2019-01-23T02:30:26.269Z,99912.32
2019-01-23T02:32:52.249Z,99917.27
2019-01-23T02:35:20.512Z,99908.77
2019-01-23T02:37:46.363Z,99912.48
2019-01-23T02:40:17.513Z,99911.30
2019-01-23T02:42:43.594Z,99907.33
2019-01-23T02:45:09.549Z,99902.22
2019-01-23T02:47:35.414Z,99901.96
2019-01-23T02:50:03.347Z,99901.92
2019-01-23T02:52:29.211Z,99900.11
2019-01-23T02:54:58.113Z,99898.31
2019-01-23T02:57:23.981Z,99896.95
2019-01-23T02:59:49.814Z,99896.50
2019-01-23T03:02:15.643Z,99890.23
2019-01-23T03:04:41.503Z,99885.44
2019-01-23T03:07:07.359Z,99887.69
2019-01-23T03:09:38.412Z,99875.60
2019-01-23T03:12:04.270Z,99881.78
2019-01-23T03:14:31.606Z,99877.05
2019-01-23T03:16:57.443Z,99877.59
2019-01-23T03:19:23.575Z,99875.59
2019-01-23T03:21:51.309Z,99868.67
2019-01-23T03:24:17.427Z,99864.60
2019-01-23T03:26:43.280Z,99864.36
2019-01-23T03:29:11.023Z,99869.46
2019-01-23T03:31:36.854Z,99864.44
2019-01-23T03:34:02.733Z,99876.43
2019-01-23T03:36:28.569Z,99873.52
2019-01-23T03:38:54.396Z,99874.08
2019-01-23T03:41:20.278Z,99868.59
2019-01-23T03:43:48.285Z,99867.78
2019-01-23T03:46:14.114Z,99875.22
2019-01-23T03:48:39.955Z,99877.16
2019-01-23T03:51:05.810Z,99872.64
2019-01-23T03:53:31.640Z,99877.16
2019-01-23T03:55:59.395Z,99877.63
2019-01-23T03:58:25.234Z,99880.79
2019-01-23T04:00:57.414Z,99881.13
2019-01-23T04:03:24.480Z,99881.69
2019-01-23T04:05:50.329Z,99881.73
2019-01-23T04:08:18.066Z,99883.16
2019-01-23T04:10:44.020Z,99880.70
2019-01-23T04:13:09.822Z,99884.67
2019-01-23T04:15:35.646Z,99882.31
2019-01-23T04:18:01.488Z,99885.52
2019-01-23T04:20:27.298Z,99882.39
2019-01-23T04:22:53.390Z,99897.47
2019-01-23T04:25:25.043Z,99885.57
2019-01-23T04:27:50.861Z,99888.61
2019-01-23T04:30:18.983Z,99894.27
2019-01-23T04:32:44.810Z,99888.48
2019-01-23T04:35:10.614Z,99894.27
2019-01-23T04:37:36.411Z,99898.23
2019-01-23T04:40:05.450Z,99900.52
2019-01-23T04:42:33.235Z,99894.84
2019-01-23T04:45:01.277Z,99897.52
2019-01-23T04:47:27.114Z,99898.78
2019-01-23T04:49:52.917Z,99895.98
2019-01-23T04:52:39.045Z,99899.39
2019-01-23T04:55:05.651Z,99898.26
2019-01-23T04:57:31.457Z,99895.57
2019-01-23T04:59:57.316Z,99904.34
2019-01-23T05:02:23.228Z,99897.20
2019-01-23T05:04:49.040Z,99909.87
2019-01-23T05:07:14.876Z,99905.06
2019-01-23T05:09:40.698Z,99907.46
2019-01-23T05:12:06.502Z,99911.50
2019-01-23T05:14:32.454Z,99914.54
2019-01-23T05:16:58.255Z,99907.72
2019-01-23T05:19:24.100Z,99904.39
2019-01-23T05:21:49.910Z,99906.66
2019-01-23T05:24:15.714Z,99905.73
2019-01-23T05:26:41.824Z,99908.39
2019-01-23T05:29:07.679Z,99907.56
2019-01-23T05:31:33.484Z,99909.94
2019-01-23T05:33:59.491Z,99908.66
2019-01-23T05:36:25.319Z,99917.59
2019-01-23T05:38:57.921Z,99911.25
2019-01-23T05:41:23.975Z,99906.71
2019-01-23T05:43:55.155Z,99910.05
2019-01-23T05:46:24.013Z,99910.48
2019-01-23T05:48:49.814Z,99914.44
2019-01-23T05:51:15.668Z,99908.69
2019-01-23T05:53:41.634Z,99917.14
2019-01-23T05:56:07.468Z,99914.28
2019-01-23T05:58:33.271Z,99922.33
2019-01-23T06:01:00.991Z,99921.48
2019-01-23T06:03:26.820Z,99924.55
2019-01-23T06:05:52.635Z,99927.21
2019-01-23T06:08:18.556Z,99930.61
2019-01-23T06:10:44.382Z,99929.66
2019-01-23T06:13:12.664Z,99935.51
2019-01-23T06:15:38.463Z,99930.20
2019-01-23T06:18:08.976Z,99931.19
2019-01-23T06:20:34.818Z,99927.22
2019-01-23T06:23:00.693Z,99929.79
2019-01-23T06:25:26.516Z,99935.86
2019-01-23T06:27:52.350Z,99936.70
2019-01-23T06:30:23.966Z,99939.16
2019-01-23T06:32:49.799Z,99947.73
2019-01-23T06:35:15.627Z,99945.77
2019-01-23T06:37:44.073Z,99946.15
2019-01-23T06:40:11.819Z,99956.05
2019-01-23T06:42:39.560Z,99953.53
2019-01-23T06:45:08.763Z,99959.61
2019-01-23T06:47:34.607Z,99957.45
2019-01-23T06:50:00.671Z,99959.49
2019-01-23T06:52:26.453Z,99953.72
2019-01-23T06:54:52.336Z,99961.26
2019-01-23T06:57:18.145Z,99958.55
2019-01-23T06:59:44.038Z,99956.49
2019-01-23T07:02:11.769Z,99958.00
2019-01-23T07:04:42.479Z,99956.69
2019-01-23T07:07:08.299Z,99966.86
2019-01-23T07:09:34.286Z,99968.16
2019-01-23T07:12:00.085Z,99962.68
2019-01-23T07:14:25.915Z,99963.14
2019-01-23T07:16:55.849Z,99973.31
2019-01-23T07:19:21.692Z,99979.84
2019-01-23T07:21:49.424Z,99984.79
2019-01-23T07:24:17.126Z,99979.57
2019-01-23T07:26:42.939Z,99984.24
2019-01-23T07:29:08.770Z,99983.20
2019-01-23T07:31:34.587Z,99985.05
2019-01-23T07:34:00.659Z,99986.30
2019-01-23T07:36:26.503Z,99985.82
2019-01-23T07:38:52.405Z,99983.95
2019-01-23T07:41:18.259Z,99992.63
2019-01-23T07:43:44.452Z,99988.48
2019-01-23T07:46:13.020Z,99994.76
2019-01-23T07:48:38.827Z,99992.33
2019-01-23T07:51:04.645Z,99996.31
2019-01-23T07:53:40.826Z,100001.06
2019-01-23T07:56:06.643Z,99996.16
2019-01-23T07:58:32.463Z,100002.39
2019-01-23T08:00:58.302Z,100004.84
2019-01-23T08:03:26.516Z,100001.94
2019-01-23T08:05:52.383Z,100006.61
2019-01-23T08:08:18.226Z,100008.91
2019-01-23T08:10:44.034Z,100014.59
2019-01-23T08:13:12.086Z,100006.22
2019-01-23T08:15:39.596Z,100015.09
2019-01-23T08:18:08.016Z,100020.59
2019-01-23T08:20:33.851Z,100016.52
2019-01-23T08:22:59.984Z,100024.03
2019-01-23T08:25:25.810Z,100027.55
2019-01-23T08:27:51.626Z,100034.00
2019-01-23T08:30:19.346Z,100026.80
2019-01-23T08:32:45.176Z,100031.05
2019-01-23T08:35:14.584Z,100031.20
2019-01-23T08:37:40.393Z,100033.89
2019-01-23T08:40:09.613Z,100034.77
2019-01-23T08:42:36.620Z,100036.61
2019-01-23T08:45:05.339Z,100042.42
2019-01-23T08:47:31.147Z,100043.98
2019-01-23T08:49:57.002Z,100038.05
2019-01-23T08:52:22.835Z,100036.03
2019-01-23T08:54:48.642Z,100042.52
2019-01-23T08:57:16.459Z,100045.88
2019-01-23T08:59:42.357Z,100053.66
2019-01-23T09:02:09.167Z,100047.77
2019-01-23T09:04:34.994Z,100054.77
2019-01-23T09:07:00.793Z,100048.06
2019-01-23T09:09:26.600Z,100059.71
2019-01-23T09:11:52.431Z,100065.14
2019-01-23T09:14:18.452Z,100063.09
2019-01-23T09:16:44.271Z,100065.27
2019-01-23T09:19:10.092Z,100065.27
2019-01-23T09:21:35.939Z,100072.81
2019-01-23T09:24:01.831Z,100072.81
2019-01-23T09:26:27.670Z,100074.66
2019-01-23T09:28:56.665Z,100074.86
2019-01-23T09:31:53.186Z,100081.95
2019-01-23T09:34:29.264Z,100085.73
2019-01-23T09:37:01.693Z,100087.27
2019-01-23T09:39:37.350Z,100096.69
2019-01-23T09:42:16.243Z,100095.31
2019-01-23T09:45:06.097Z,100104.61
2019-01-23T09:47:44.992Z,100101.44
2019-01-23T09:50:32.475Z,100107.61
2019-01-23T09:53:03.659Z,100105.31
2019-01-23T09:55:29.628Z,100118.75
2019-01-23T09:57:55.434Z,100116.53
2019-01-23T10:00:27.768Z,100119.39
2019-01-23T10:02:55.729Z,100117.08
2019-01-23T10:05:24.322Z,100117.67
2019-01-23T10:07:52.182Z,100123.73
2019-01-23T10:10:19.989Z,100123.39
2019-01-23T10:12:46.101Z,100128.27
2019-01-23T10:15:18.033Z,100128.63
2019-01-23T10:17:43.834Z,100131.66
2019-01-23T10:20:09.652Z,100134.34
2019-01-23T10:22:35.634Z,100132.88
2019-01-23T10:25:01.444Z,100138.67
2019-01-23T10:27:27.254Z,100140.39
2019-01-23T10:29:53.090Z,100140.75
2019-01-23T10:32:18.916Z,100139.45
2019-01-23T10:34:44.715Z,100148.81
2019-01-23T10:37:10.549Z,100149.97
2019-01-23T10:39:36.357Z,100150.07
2019-01-23T10:42:02.278Z,100152.17
2019-01-23T10:44:28.325Z,100149.76
2019-01-23T10:46:54.183Z,100160.02
2019-01-23T10:49:20.026Z,100155.59
2019-01-23T10:51:45.857Z,100159.69
2019-01-23T10:54:11.673Z,100161.65
2019-01-23T10:56:37.483Z,100155.84
2019-01-23T10:59:09.338Z,100160.80
2019-01-23T11:01:35.168Z,100159.25
2019-01-23T11:04:01.005Z,100165.28
2019-01-23T11:06:26.842Z,100173.83
2019-01-23T11:08:52.654Z,100173.10
2019-01-23T11:11:18.458Z,100174.27
2019-01-23T11:13:44.608Z,100163.91
2019-01-23T11:16:10.412Z,100167.84
2019-01-23T11:18:36.237Z,100172.75
2019-01-23T11:21:02.057Z,100174.98
2019-01-23T11:23:27.864Z,100173.63
2019-01-23T11:25:53.692Z,100178.02
2019-01-23T11:28:19.503Z,100181.05
2019-01-23T11:30:45.327Z,100181.86
2019-01-23T11:33:11.364Z,100175.31
2019-01-23T11:35:37.177Z,100183.06
2019-01-23T11:38:02.981Z,100187.98
2019-01-23T11:40:29.904Z,100193.37
2019-01-23T11:42:55.965Z,100192.83
2019-01-23T11:45:21.783Z,100197.05
2019-01-23T11:47:47.592Z,100198.27
2019-01-23T11:50:21.164Z,100197.89
2019-01-23T11:52:43.149Z,100193.95
2019-01-23T11:55:14.625Z,100196.23
2019-01-23T11:57:40.432Z,100201.04
2019-01-23T12:00:17.978Z,100202.50
2019-01-23T12:02:43.795Z,100199.48
2019-01-23T12:05:11.797Z,100197.75
2019-01-23T12:07:37.635Z,100206.75
2019-01-23T12:10:12.311Z,100205.23
2019-01-23T12:12:43.040Z,100209.89
2019-01-23T12:15:12.325Z,100211.48
2019-01-23T12:17:40.877Z,100210.82
2019-01-23T12:20:08.500Z,100206.72
2019-01-23T12:22:34.307Z,100205.56
2019-01-23T12:25:02.346Z,100208.44
2019-01-23T12:27:28.176Z,100211.41
2019-01-23T12:29:53.990Z,100209.69
2019-01-23T12:32:19.825Z,100221.64
2019-01-23T12:34:48.547Z,100223.73
2019-01-23T12:37:17.273Z,100218.82
2019-01-23T12:39:43.084Z,100219.41
2019-01-23T12:42:08.952Z,100224.98
2019-01-23T12:44:34.996Z,100232.56
2019-01-23T12:47:03.718Z,100237.53
2019-01-23T12:49:29.547Z,100239.95
2019-01-23T12:51:55.390Z,100232.06
2019-01-23T12:54:21.455Z,100238.80
2019-01-23T12:56:47.284Z,100239.12
2019-01-23T12:59:13.126Z,100240.64
2019-01-23T13:01:42.215Z,100240.58
2019-01-23T13:04:06.692Z,100240.78
2019-01-23T13:06:35.684Z,100243.27
2019-01-23T13:09:05.405Z,100241.28
2019-01-23T13:11:33.100Z,100245.37
2019-01-23T13:13:58.951Z,100243.68
2019-01-23T13:16:27.216Z,100245.77
2019-01-23T13:18:53.014Z,100250.68
2019-01-23T13:21:18.855Z,100246.53
2019-01-23T13:23:47.440Z,100250.53
2019-01-23T13:26:13.259Z,100251.32
2019-01-23T13:28:39.062Z,100253.36
2019-01-23T13:31:04.927Z,100249.69
2019-01-23T13:33:30.704Z,100254.86
2019-01-23T13:35:56.502Z,100254.77
2019-01-23T13:38:22.336Z,100263.33
2019-01-23T13:40:50.371Z,100260.86
2019-01-23T13:43:16.180Z,100266.14
2019-01-23T13:45:42.006Z,100263.78
2019-01-23T13:48:07.818Z,100277.64
2019-01-23T13:50:33.622Z,100273.34
2019-01-23T13:53:02.497Z,100282.32
2019-01-23T13:55:28.312Z,100279.19
2019-01-23T13:57:54.115Z,100281.80
2019-01-23T14:00:37.123Z,100294.95
2019-01-23T14:03:03.703Z,100289.08
2019-01-23T14:05:29.517Z,100287.23
2019-01-23T14:07:57.254Z,100286.58
2019-01-23T14:10:23.063Z,100294.13
2019-01-23T14:12:49.112Z,100305.07
2019-01-23T14:15:27.656Z,100301.13
2019-01-23T14:17:53.480Z,100298.34
2019-01-23T14:20:19.260Z,100306.58
2019-01-23T14:22:45.330Z,100309.06
2019-01-23T14:25:13.547Z,100310.44
2019-01-23T14:27:39.352Z,100309.91
2019-01-23T14:30:08.993Z,100311.08
2019-01-23T14:32:34.801Z,100309.28
2019-01-23T14:35:00.673Z,100317.02
2019-01-23T14:37:26.521Z,100319.44
2019-01-23T14:39:55.241Z,100323.56
2019-01-23T14:42:26.306Z,100320.33
2019-01-23T14:44:52.820Z,100326.56
2019-01-23T14:47:18.623Z,100319.13
2019-01-23T14:49:44.451Z,100327.49
2019-01-23T14:52:10.295Z,100326.69
2019-01-23T14:54:36.139Z,100321.41
2019-01-23T14:57:01.950Z,100328.60
2019-01-23T14:59:27.783Z,100326.88
2019-01-23T15:01:53.603Z,100324.28
2019-01-23T15:04:19.402Z,100326.77
2019-01-23T15:06:47.459Z,100332.14
2019-01-23T15:09:13.263Z,100339.16
2019-01-23T15:11:39.072Z,100340.16
2019-01-23T15:14:05.002Z,100345.54
2019-01-23T15:16:30.843Z,100345.31
2019-01-23T15:18:56.699Z,100355.42
2019-01-23T15:21:22.515Z,100352.81
2019-01-23T15:23:48.407Z,100362.46
2019-01-23T15:26:14.222Z,100361.49
2019-01-23T15:28:40.044Z,100367.89
2019-01-23T15:31:05.902Z,100370.67
2019-01-23T15:33:31.710Z,100371.81
2019-01-23T15:35:57.529Z,100373.67
2019-01-23T15:38:23.335Z,100384.74
2019-01-23T15:40:49.172Z,100388.94
2019-01-23T15:43:15.182Z,100390.52
2019-01-23T15:45:44.047Z,100393.07
2019-01-23T15:48:09.860Z,100410.70
2019-01-23T15:50:35.729Z,100411.27
2019-01-23T15:53:09.128Z,100410.73
2019-01-23T15:55:34.926Z,100414.84
2019-01-23T15:58:00.760Z,100418.12
2019-01-23T16:00:30.741Z,100424.06
2019-01-23T16:02:59.352Z,100428.52
2019-01-23T16:05:27.134Z,100431.91
2019-01-23T16:07:52.920Z,100436.02
2019-01-23T16:10:20.745Z,100450.07
2019-01-23T16:12:46.655Z,100451.66
2019-01-23T16:15:17.162Z,100453.12
2019-01-23T16:17:43.085Z,100452.89
2019-01-23T16:20:10.628Z,100449.96
2019-01-23T16:22:36.439Z,100458.48
2019-01-23T16:25:03.964Z,100460.71
2019-01-23T16:27:29.815Z,100452.22
2019-01-23T16:29:55.621Z,100456.25
2019-01-23T16:32:23.346Z,100463.19
2019-01-23T16:34:49.158Z,100468.78
2019-01-23T16:37:14.971Z,100470.30
2019-01-23T16:39:42.176Z,100480.59
2019-01-23T16:42:09.891Z,100487.14
2019-01-23T16:44:38.677Z,100492.45
2019-01-23T16:47:04.513Z,100488.92
2019-01-23T16:49:32.468Z,100497.61
2019-01-23T16:51:58.275Z,100497.13
2019-01-23T16:54:24.110Z,100505.48
2019-01-23T16:56:52.555Z,100500.98
2019-01-23T16:59:18.492Z,100499.12
2019-01-23T17:01:44.259Z,100503.15
2019-01-23T17:04:12.955Z,100505.66
2019-01-23T17:06:39.074Z,100504.53
2019-01-23T17:09:05.894Z,100518.97
2019-01-23T17:11:36.648Z,100522.50
2019-01-23T17:14:04.394Z,100526.41
2019-01-23T17:16:30.381Z,100526.22
2019-01-23T17:18:56.220Z,100537.53
2019-01-23T17:21:23.920Z,100537.42
2019-01-23T17:23:49.963Z,100530.25
2019-01-23T17:26:15.771Z,100536.10
2019-01-23T17:28:41.605Z,100538.25
2019-01-23T17:31:07.535Z,100534.16
2019-01-23T17:33:33.343Z,100544.42
2019-01-23T17:35:59.479Z,100543.00
2019-01-23T17:38:25.356Z,100546.85
2019-01-23T17:40:51.203Z,100549.20
2019-01-23T17:43:19.074Z,100549.20
2019-01-23T17:45:44.894Z,100555.79
2019-01-23T17:48:10.866Z,100551.86
2019-01-23T17:50:36.690Z,100553.73
2019-01-23T17:53:07.724Z,100556.69
2019-01-23T17:55:35.830Z,100570.44
2019-01-23T17:58:04.403Z,100565.30
2019-01-23T18:00:32.131Z,100568.03
2019-01-23T18:03:00.046Z,100565.33
2019-01-23T18:05:26.148Z,100568.48
2019-01-23T18:07:52.081Z,100576.83
2019-01-23T18:10:17.933Z,100568.53
2019-01-23T18:12:43.743Z,100578.05
2019-01-23T18:15:18.507Z,100577.58
2019-01-23T18:17:47.083Z,100581.59
2019-01-23T18:20:16.056Z,100588.45
2019-01-23T18:22:41.934Z,100590.14
2019-01-23T18:25:08.750Z,100594.28
2019-01-23T18:27:34.686Z,100597.27
2019-01-23T18:30:01.473Z,100592.87
2019-01-23T18:32:27.284Z,100596.87
2019-01-23T18:35:15.244Z,100603.13
2019-01-23T18:37:56.841Z,100595.46
2019-01-23T18:40:38.277Z,100603.30
2019-01-23T18:43:24.674Z,100598.11
2019-01-23T18:46:11.132Z,100597.09
2019-01-23T18:49:07.772Z,100596.48
2019-01-23T18:51:40.420Z,100600.98
2019-01-23T18:54:06.502Z,100599.39
2019-01-23T18:56:32.511Z,100609.75
2019-01-23T18:58:59.604Z,100617.09
2019-01-23T19:01:27.339Z,100620.84
2019-01-23T19:03:53.200Z,100620.41
2019-01-23T19:06:19.021Z,100620.05
2019-01-23T19:08:44.888Z,100628.58
2019-01-23T19:11:12.705Z,100626.86
2019-01-23T19:13:38.824Z,100638.93
2019-01-23T19:16:04.634Z,100629.55
2019-01-23T19:18:30.430Z,100642.75
2019-01-23T19:20:56.263Z,100633.05
2019-01-23T19:23:22.174Z,100638.82
2019-01-23T19:25:47.967Z,100639.40
2019-01-23T19:28:13.882Z,100643.71
2019-01-23T19:30:39.680Z,100648.56
2019-01-23T19:33:13.673Z,100651.23
2019-01-23T19:35:39.819Z,100651.39
2019-01-23T19:38:05.631Z,100652.98
2019-01-23T19:40:34.554Z,100648.69
2019-01-23T19:43:00.391Z,100659.02
2019-01-23T19:45:26.199Z,100654.37
2019-01-23T19:47:52.108Z,100654.37
2019-01-23T19:50:18.047Z,100661.53
2019-01-23T19:52:43.968Z,100662.05
2019-01-23T19:55:14.476Z,100657.77
2019-01-23T19:57:40.302Z,100656.19
2019-01-23T20:00:13.342Z,100663.73
2019-01-23T20:02:39.326Z,100670.66
2019-01-23T20:05:09.024Z,100664.63
2019-01-23T20:07:36.070Z,100670.20
2019-01-23T20:10:04.584Z,100666.58
2019-01-23T20:12:32.621Z,100669.29
2019-01-23T20:14:58.535Z,100681.08
2019-01-23T20:17:24.455Z,100680.05
2019-01-23T20:19:52.917Z,100683.64
2019-01-23T20:22:18.720Z,100681.13
2019-01-23T20:24:46.526Z,100679.12
2019-01-23T20:27:12.763Z,100682.50
2019-01-23T20:29:38.584Z,100679.35
2019-01-23T20:32:04.391Z,100680.70
2019-01-23T20:34:32.532Z,100684.00
2019-01-23T20:36:58.339Z,100685.67
2019-01-23T20:39:24.134Z,100684.12
2019-01-23T20:41:49.999Z,100691.54
2019-01-23T20:44:16.022Z,100689.31
2019-01-23T20:46:41.852Z,100697.02
2019-01-23T20:49:09.639Z,100699.16
2019-01-23T20:51:35.460Z,100695.50
2019-01-23T20:54:01.277Z,100701.28
2019-01-23T20:56:27.130Z,100703.62
2019-01-23T20:58:52.986Z,100710.66
2019-01-23T21:01:18.789Z,100711.51
2019-01-23T21:03:44.890Z,100714.64
2019-01-23T21:06:10.774Z,100713.20
2019-01-23T21:08:36.592Z,100718.88
2019-01-23T21:11:03.699Z,100717.72
2019-01-23T21:13:29.837Z,100722.47
2019-01-23T21:15:55.636Z,100729.02
2019-01-23T21:18:21.469Z,100732.13
2019-01-23T21:20:47.284Z,100733.14
2019-01-23T21:23:13.092Z,100725.78
2019-01-23T21:25:38.911Z,100728.75
2019-01-23T21:28:05.956Z,100735.06
2019-01-23T21:30:32.987Z,100744.98
2019-01-23T21:33:01.635Z,100743.91
2019-01-23T21:35:27.443Z,100750.78
2019-01-23T21:36:49.118Z,100756.61
2019-01-23T21:37:10.436Z,100760.14
2019-01-23T21:37:31.359Z,100754.97
2019-01-23T21:37:52.285Z,100754.19
2019-01-23T21:38:13.200Z,100749.77
2019-01-23T21:38:34.098Z,100753.75
2019-01-23T21:38:55.017Z,100749.63
2019-01-23T21:39:16.014Z,100755.55
2019-01-23T21:39:36.911Z,100757.64
2019-01-23T21:39:57.823Z,100753.48
2019-01-23T21:40:21.451Z,100750.47
2019-01-23T21:40:42.342Z,100756.39
2019-01-23T21:41:03.286Z,100755.52
2019-01-23T21:41:24.192Z,100755.37
2019-01-23T21:41:45.096Z,100750.15
2019-01-23T21:42:06.032Z,100748.02
2019-01-23T21:42:26.946Z,100754.01
2019-01-23T21:42:47.849Z,100752.34
2019-01-23T21:43:08.744Z,100759.68
2019-01-23T21:43:29.651Z,100760.62
2019-01-23T21:43:50.553Z,100763.95
2019-01-23T21:44:13.359Z,100763.35
2019-01-23T21:44:34.260Z,100771.21
2019-01-23T21:44:55.171Z,100766.58
2019-01-23T21:45:18.608Z,100761.05
2019-01-23T21:45:39.516Z,100766.06
2019-01-23T21:46:00.448Z,100765.30
2019-01-23T21:46:23.911Z,100770.05
2019-01-23T21:46:44.817Z,100767.53
2019-01-23T21:47:05.712Z,100768.42
2019-01-23T21:47:26.607Z,100770.55
2019-01-23T21:47:49.121Z,100765.05
2019-01-23T21:48:10.071Z,100762.10
2019-01-23T21:48:31.023Z,100764.62
2019-01-23T21:48:52.027Z,100762.63
2019-01-23T21:49:12.928Z,100770.94
2019-01-23T21:49:33.850Z,100767.83
2019-01-23T21:49:54.769Z,100769.83
2019-01-23T21:50:20.820Z,100771.02
2019-01-23T21:50:41.722Z,100767.02
2019-01-23T21:51:02.622Z,100767.96
2019-01-23T21:51:23.522Z,100769.43
2019-01-23T21:51:44.459Z,100769.69
2019-01-23T21:52:05.359Z,100766.45
2019-01-23T21:52:28.883Z,100767.11
2019-01-23T21:52:49.877Z,100767.38
2019-01-23T21:53:10.768Z,100770.33
2019-01-23T21:53:31.671Z,100762.58
2019-01-23T21:53:52.680Z,100769.91
2019-01-23T21:54:13.637Z,100776.02
2019-01-23T21:54:34.541Z,100771.00
2019-01-23T21:54:58.249Z,100774.05
2019-01-23T21:55:22.078Z,100776.77
2019-01-23T21:55:42.982Z,100768.39
2019-01-23T21:56:03.923Z,100775.35
2019-01-23T21:56:24.816Z,100775.66
2019-01-23T21:56:45.736Z,100767.77
2019-01-23T21:57:06.663Z,100770.97
2019-01-23T21:57:29.546Z,100775.07
2019-01-23T21:57:50.960Z,100775.59
2019-01-23T21:58:11.862Z,100775.10
2019-01-23T21:58:32.782Z,100779.98
2019-01-23T21:58:56.309Z,100776.28
2019-01-23T21:59:17.203Z,100780.17
2019-01-23T21:59:38.153Z,100783.28
2019-01-23T21:59:59.148Z,100778.90
2019-01-23T22:00:23.361Z,100777.94
2019-01-23T22:00:44.549Z,100777.47
2019-01-23T22:01:10.219Z,100788.26
2019-01-23T22:01:31.182Z,100780.89
2019-01-23T22:01:52.072Z,100784.84
2019-01-23T22:02:13.127Z,100783.13
2019-01-23T22:02:35.276Z,100782.58
2019-01-23T22:03:01.503Z,100786.91
2019-01-23T22:03:25.023Z,100776.64
2019-01-23T22:03:49.420Z,100781.27
2019-01-23T22:04:10.510Z,100788.59
2019-01-23T22:04:31.395Z,100783.77
2019-01-23T22:04:52.301Z,100785.19
2019-01-23T22:05:13.316Z,100780.20
2019-01-23T22:05:34.224Z,100780.17
2019-01-23T22:05:55.127Z,100782.23
2019-01-23T22:06:18.821Z,100776.92
2019-01-23T22:06:39.727Z,100779.23
2019-01-23T22:07:00.625Z,100784.88
2019-01-23T22:07:21.527Z,100779.92
2019-01-23T22:07:42.475Z,100783.13
2019-01-23T22:08:03.377Z,100782.17
2019-01-23T22:08:24.335Z,100787.25
2019-01-23T22:08:45.250Z,100782.44
2019-01-23T22:09:06.138Z,100778.73
2019-01-23T22:09:27.044Z,100784.27
2019-01-23T22:10:10.658Z,100778.02
2019-01-23T22:10:31.556Z,100787.05
2019-01-23T22:10:52.459Z,100784.07
2019-01-23T22:11:13.444Z,100787.16
2019-01-23T22:11:34.347Z,100789.36
2019-01-23T22:11:55.236Z,100781.95
2019-01-23T22:12:16.138Z,100784.17
2019-01-23T22:12:37.061Z,100794.02
2019-01-23T22:12:57.994Z,100787.42
2019-01-23T22:13:18.902Z,100789.30
2019-01-23T22:13:39.800Z,100789.06
2019-01-23T22:14:00.725Z,100792.53
2019-01-23T22:14:23.536Z,100783.47
2019-01-23T22:14:44.443Z,100787.09
2019-01-23T22:15:12.020Z,100785.95
2019-01-23T22:15:33.030Z,100789.05
2019-01-23T22:15:54.029Z,100792.13
2019-01-23T22:16:14.924Z,100795.97
2019-01-23T22:16:38.734Z,100793.82
2019-01-23T22:17:04.572Z,100795.06
2019-01-23T22:17:25.457Z,100797.28
2019-01-23T22:17:46.378Z,100792.21
2019-01-23T22:18:07.289Z,100794.07
2019-01-23T22:18:28.200Z,100798.84
2019-01-23T22:18:49.116Z,100795.22
2019-01-23T22:19:10.018Z,100795.69
2019-01-23T22:19:30.952Z,100799.39
2019-01-23T22:19:51.861Z,100795.81
2019-01-23T22:20:15.328Z,100800.44
2019-01-23T22:20:36.227Z,100799.28
2019-01-23T22:20:57.129Z,100802.81
2019-01-23T22:21:18.037Z,100799.13
2019-01-23T22:21:38.945Z,100800.28
2019-01-23T22:22:03.661Z,100802.97
2019-01-23T22:22:24.555Z,100801.50
2019-01-23T22:22:47.820Z,100809.91
2019-01-23T22:23:08.734Z,100804.84
2019-01-23T22:23:29.743Z,100804.15
2019-01-23T22:23:50.615Z,100798.15
2019-01-23T22:24:11.518Z,100807.31
2019-01-23T22:24:32.414Z,100805.30
2019-01-23T22:24:53.322Z,100808.86
2019-01-23T22:25:17.130Z,100806.08
2019-01-23T22:25:38.038Z,100803.38
2019-01-23T22:25:59.052Z,100810.67
2019-01-23T22:26:19.951Z,100810.31
2019-01-23T22:26:43.518Z,100804.83
2019-01-23T22:27:04.414Z,100801.66
2019-01-23T22:27:25.315Z,100811.88
2019-01-23T22:27:46.251Z,100807.41
2019-01-23T22:28:09.086Z,100809.67
2019-01-23T22:28:30.090Z,100807.43
2019-01-23T22:28:53.873Z,100804.75
2019-01-23T22:29:14.777Z,100811.97
2019-01-23T22:29:35.676Z,100808.05
2019-01-23T22:29:56.570Z,100812.23
2019-01-23T22:30:31.988Z,100810.92
2019-01-23T22:30:52.902Z,100813.69
2019-01-23T22:31:13.814Z,100811.62
2019-01-23T22:31:34.716Z,100812.78
2019-01-23T22:31:55.609Z,100816.00
2019-01-23T22:32:16.535Z,100822.39
2019-01-23T22:32:37.425Z,100818.06
2019-01-23T22:33:06.663Z,100814.30
2019-01-23T22:33:27.513Z,100826.69
2019-01-23T22:33:48.445Z,100818.69
2019-01-23T22:34:09.359Z,100818.38
2019-01-23T22:34:30.379Z,100821.70
2019-01-23T22:34:51.282Z,100816.22
2019-01-23T22:35:14.192Z,100816.76